sensor_id;sensor_type;location;lat;lon;timestamp;pressure;altitude;pressure_sealevel;temperature;humidity
19789;BME280;10054;59.332;18.244;2023-05-10T00:01:34;101503.16;;;9.58;62.23
19789;BME280;10054;59.332;18.244;2023-05-10T00:04:03;101505.94;;;9.54;62.48
19789;BME280;10054;59.332;18.244;2023-05-10T00:06:32;101508.31;;;9.50;62.71
19789;BME280;10054;59.332;18.244;2023-05-10T00:09:01;101508.50;;;9.46;62.89
19789;BME280;10054;59.332;18.244;2023-05-10T00:11:30;101515.36;;;9.40;63.13
19789;BME280;10054;59.332;18.244;2023-05-10T00:13:59;101514.70;;;9.35;63.34
19789;BME280;10054;59.332;18.244;2023-05-10T00:16:28;101516.67;;;9.30;63.53
19789;BME280;10054;59.332;18.244;2023-05-10T00:18:57;101518.71;;;9.23;63.77
19789;BME280;10054;59.332;18.244;2023-05-10T00:21:25;101522.85;;;9.18;64.01
19789;BME280;10054;59.332;18.244;2023-05-10T00:23:55;101514.30;;;9.13;64.29
19789;BME280;10054;59.332;18.244;2023-05-10T00:26:24;101513.11;;;9.10;64.64
19789;BME280;10054;59.332;18.244;2023-05-10T00:28:53;101519.30;;;9.09;64.85
19789;BME280;10054;59.332;18.244;2023-05-10T00:31:22;101521.13;;;9.07;65.08
19789;BME280;10054;59.332;18.244;2023-05-10T00:33:51;101521.27;;;9.04;65.36
19789;BME280;10054;59.332;18.244;2023-05-10T00:36:19;101522.24;;;9.02;65.61
19789;BME280;10054;59.332;18.244;2023-05-10T00:38:48;101523.62;;;9.00;65.81
19789;BME280;10054;59.332;18.244;2023-05-10T00:41:18;101519.41;;;8.96;66.15
19789;BME280;10054;59.332;18.244;2023-05-10T00:43:48;101517.76;;;8.94;66.44
19789;BME280;10054;59.332;18.244;2023-05-10T00:46:17;101515.65;;;8.92;66.69
19789;BME280;10054;59.332;18.244;2023-05-10T00:48:48;101524.49;;;8.91;67.00
19789;BME280;10054;59.332;18.244;2023-05-10T00:51:18;101520.67;;;8.87;67.22
19789;BME280;10054;59.332;18.244;2023-05-10T00:53:47;101520.86;;;8.83;67.38
19789;BME280;10054;59.332;18.244;2023-05-10T00:56:17;101518.35;;;8.80;67.69
19789;BME280;10054;59.332;18.244;2023-05-10T00:58:46;101517.16;;;8.77;67.87
19789;BME280;10054;59.332;18.244;2023-05-10T01:01:14;101517.69;;;8.75;68.20
19789;BME280;10054;59.332;18.244;2023-05-10T01:03:44;101518.14;;;8.74;68.38
19789;BME280;10054;59.332;18.244;2023-05-10T01:06:13;101508.20;;;8.71;68.47
19789;BME280;10054;59.332;18.244;2023-05-10T01:08:42;101513.06;;;8.70;68.70
19789;BME280;10054;59.332;18.244;2023-05-10T01:11:12;101514.44;;;8.68;68.91
19789;BME280;10054;59.332;18.244;2023-05-10T01:13:43;101514.11;;;8.66;69.16
19789;BME280;10054;59.332;18.244;2023-05-10T01:16:13;101514.29;;;8.61;69.28
19789;BME280;10054;59.332;18.244;2023-05-10T01:18:43;101513.62;;;8.56;69.70
19789;BME280;10054;59.332;18.244;2023-05-10T01:32:40;101515.52;;;8.29;70.76
19789;BME280;10054;59.332;18.244;2023-05-10T01:35:17;101514.05;;;8.22;70.80
19789;BME280;10054;59.332;18.244;2023-05-10T01:40:30;101518.56;;;8.18;71.58
19789;BME280;10054;59.332;18.244;2023-05-10T01:43:06;101519.11;;;8.16;71.71
19789;BME280;10054;59.332;18.244;2023-05-10T01:45:50;101517.57;;;8.11;71.91
19789;BME280;10054;59.332;18.244;2023-05-10T01:48:14;101519.45;;;8.07;72.31
19789;BME280;10054;59.332;18.244;2023-05-10T01:50:44;101522.14;;;8.06;72.51
19789;BME280;10054;59.332;18.244;2023-05-10T01:53:17;101522.83;;;7.99;72.48
19789;BME280;10054;59.332;18.244;2023-05-10T01:55:48;101519.45;;;7.96;72.94
19789;BME280;10054;59.332;18.244;2023-05-10T01:58:27;101519.52;;;7.94;73.41
19789;BME280;10054;59.332;18.244;2023-05-10T02:00:55;101522.20;;;7.93;73.64
19789;BME280;10054;59.332;18.244;2023-05-10T02:03:27;101520.89;;;7.93;73.81
19789;BME280;10054;59.332;18.244;2023-05-10T02:05:58;101522.66;;;7.92;74.01
19789;BME280;10054;59.332;18.244;2023-05-10T02:08:27;101522.71;;;7.90;74.18
19789;BME280;10054;59.332;18.244;2023-05-10T02:10:58;101527.56;;;7.89;74.39
19789;BME280;10054;59.332;18.244;2023-05-10T02:13:30;101521.00;;;7.89;74.64
19789;BME280;10054;59.332;18.244;2023-05-10T02:16:02;101525.40;;;7.89;74.85
19789;BME280;10054;59.332;18.244;2023-05-10T02:18:34;101522.37;;;7.88;75.18
19789;BME280;10054;59.332;18.244;2023-05-10T02:21:05;101520.20;;;7.87;75.19
19789;BME280;10054;59.332;18.244;2023-05-10T02:23:35;101522.88;;;7.86;75.13
19789;BME280;10054;59.332;18.244;2023-05-10T02:26:06;101519.97;;;7.82;75.45
19789;BME280;10054;59.332;18.244;2023-05-10T02:28:36;101520.94;;;7.79;75.81
19789;BME280;10054;59.332;18.244;2023-05-10T02:31:06;101523.16;;;7.78;75.88
19789;BME280;10054;59.332;18.244;2023-05-10T02:33:42;101524.19;;;7.74;75.93
19789;BME280;10054;59.332;18.244;2023-05-10T02:36:12;101522.93;;;7.73;76.19
19789;BME280;10054;59.332;18.244;2023-05-10T02:38:42;101525.50;;;7.74;76.53
19789;BME280;10054;59.332;18.244;2023-05-10T02:41:13;101522.98;;;7.71;77.03
19789;BME280;10054;59.332;18.244;2023-05-10T02:43:42;101527.09;;;7.67;76.80
19789;BME280;10054;59.332;18.244;2023-05-10T02:46:12;101528.40;;;7.67;77.08
19789;BME280;10054;59.332;18.244;2023-05-10T02:48:41;101529.20;;;7.69;77.10
19789;BME280;10054;59.332;18.244;2023-05-10T02:51:11;101533.70;;;7.65;77.04
19789;BME280;10054;59.332;18.244;2023-05-10T02:53:43;101529.31;;;7.66;77.22
19789;BME280;10054;59.332;18.244;2023-05-10T02:56:17;101526.98;;;7.70;77.47
19789;BME280;10054;59.332;18.244;2023-05-10T02:58:44;101527.84;;;7.70;77.25
19789;BME280;10054;59.332;18.244;2023-05-10T03:01:13;101530.00;;;7.71;77.28
19789;BME280;10054;59.332;18.244;2023-05-10T03:03:42;101525.45;;;7.76;77.47
19789;BME280;10054;59.332;18.244;2023-05-10T03:06:11;101526.64;;;7.79;77.41
19789;BME280;10054;59.332;18.244;2023-05-10T03:08:40;101523.16;;;7.78;77.56
19789;BME280;10054;59.332;18.244;2023-05-10T03:14:37;101521.80;;;7.91;78.91
19789;BME280;10054;59.332;18.244;2023-05-10T03:17:15;101526.48;;;7.95;77.83
19789;BME280;10054;59.332;18.244;2023-05-10T03:19:56;101524.14;;;8.11;76.97
19789;BME280;10054;59.332;18.244;2023-05-10T03:22:38;101523.52;;;8.49;77.05
19789;BME280;10054;59.332;18.244;2023-05-10T03:25:01;101527.29;;;8.76;75.93
19789;BME280;10054;59.332;18.244;2023-05-10T03:27:31;101527.36;;;8.95;75.78
19789;BME280;10054;59.332;18.244;2023-05-10T03:30:02;101523.12;;;9.22;75.31
19789;BME280;10054;59.332;18.244;2023-05-10T03:32:32;101522.59;;;9.45;74.27
19789;BME280;10054;59.332;18.244;2023-05-10T03:35:07;101521.47;;;9.50;73.35
19789;BME280;10054;59.332;18.244;2023-05-10T03:37:36;101521.93;;;9.60;73.16
19789;BME280;10054;59.332;18.244;2023-05-10T03:40:06;101518.52;;;9.77;72.67
19789;BME280;10054;59.332;18.244;2023-05-10T03:42:36;101516.46;;;9.83;72.09
19789;BME280;10054;59.332;18.244;2023-05-10T03:45:06;101517.50;;;9.89;72.42
19789;BME280;10054;59.332;18.244;2023-05-10T03:47:35;101516.48;;;10.02;72.54
19789;BME280;10054;59.332;18.244;2023-05-10T03:50:05;101519.55;;;10.12;71.03
19789;BME280;10054;59.332;18.244;2023-05-10T03:52:34;101520.80;;;10.24;71.05
19789;BME280;10054;59.332;18.244;2023-05-10T03:55:03;101525.86;;;10.28;70.97
19789;BME280;10054;59.332;18.244;2023-05-10T03:57:33;101523.94;;;10.40;70.46
19789;BME280;10054;59.332;18.244;2023-05-10T04:00:02;101528.23;;;10.51;70.60
19789;BME280;10054;59.332;18.244;2023-05-10T04:02:33;101528.11;;;10.63;70.44
19789;BME280;10054;59.332;18.244;2023-05-10T04:05:02;101531.03;;;10.84;70.11
19789;BME280;10054;59.332;18.244;2023-05-10T04:07:31;101530.05;;;11.04;69.15
19789;BME280;10054;59.332;18.244;2023-05-10T04:10:00;101528.70;;;11.22;67.96
19789;BME280;10054;59.332;18.244;2023-05-10T04:12:29;101530.80;;;11.32;67.87
19789;BME280;10054;59.332;18.244;2023-05-10T04:14:58;101530.71;;;11.51;67.52
19789;BME280;10054;59.332;18.244;2023-05-10T04:17:27;101532.01;;;11.68;66.21
19789;BME280;10054;59.332;18.244;2023-05-10T04:19:56;101533.83;;;11.92;65.60
19789;BME280;10054;59.332;18.244;2023-05-10T04:22:26;101529.12;;;12.06;64.42
19789;BME280;10054;59.332;18.244;2023-05-10T04:24:56;101528.89;;;12.02;64.29
19789;BME280;10054;59.332;18.244;2023-05-10T04:27:25;101528.70;;;12.13;64.80
19789;BME280;10054;59.332;18.244;2023-05-10T04:29:54;101531.45;;;12.43;63.57
19789;BME280;10054;59.332;18.244;2023-05-10T04:32:23;101531.45;;;12.43;63.57
19789;BME280;10054;59.332;18.244;2023-05-10T04:34:52;101529.45;;;12.63;62.69
19789;BME280;10054;59.332;18.244;2023-05-10T04:37:21;101529.45;;;12.63;62.69
19789;BME280;10054;59.332;18.244;2023-05-10T04:39:50;101530.59;;;12.81;62.82
19789;BME280;10054;59.332;18.244;2023-05-10T04:42:19;101527.17;;;13.02;62.00
19789;BME280;10054;59.332;18.244;2023-05-10T04:44:48;101525.45;;;13.17;61.16
19789;BME280;10054;59.332;18.244;2023-05-10T04:47:17;101521.34;;;13.34;60.62
19789;BME280;10054;59.332;18.244;2023-05-10T04:49:46;101528.72;;;13.51;60.24
19789;BME280;10054;59.332;18.244;2023-05-10T04:52:15;101520.20;;;13.53;59.84
19789;BME280;10054;59.332;18.244;2023-05-10T04:54:45;101520.02;;;13.56;59.38
19789;BME280;10054;59.332;18.244;2023-05-10T04:57:14;101518.78;;;13.54;58.46
19789;BME280;10054;59.332;18.244;2023-05-10T04:59:42;101526.67;;;13.77;59.23
19789;BME280;10054;59.332;18.244;2023-05-10T05:02:11;101522.59;;;13.86;57.77
19789;BME280;10054;59.332;18.244;2023-05-10T05:04:40;101522.69;;;13.98;57.39
19789;BME280;10054;59.332;18.244;2023-05-10T05:07:09;101520.69;;;14.09;56.08
19789;BME280;10054;59.332;18.244;2023-05-10T05:09:38;101526.90;;;14.22;57.10
19789;BME280;10054;59.332;18.244;2023-05-10T05:12:07;101529.17;;;14.42;56.69
19789;BME280;10054;59.332;18.244;2023-05-10T05:14:37;101521.27;;;14.55;55.28
19789;BME280;10054;59.332;18.244;2023-05-10T05:17:06;101529.08;;;14.44;54.67
19789;BME280;10054;59.332;18.244;2023-05-10T05:19:35;101525.84;;;14.46;55.31
19789;BME280;10054;59.332;18.244;2023-05-10T05:22:06;101526.29;;;14.60;54.50
19789;BME280;10054;59.332;18.244;2023-05-10T05:24:37;101527.74;;;14.78;53.26
19789;BME280;10054;59.332;18.244;2023-05-10T05:27:06;101525.48;;;14.92;54.14
19789;BME280;10054;59.332;18.244;2023-05-10T05:29:35;101531.34;;;15.17;53.55
19789;BME280;10054;59.332;18.244;2023-05-10T05:32:04;101529.59;;;15.23;52.23
19789;BME280;10054;59.332;18.244;2023-05-10T05:34:33;101533.25;;;15.15;51.18
19789;BME280;10054;59.332;18.244;2023-05-10T05:37:08;101531.27;;;15.31;52.55
19789;BME280;10054;59.332;18.244;2023-05-10T05:39:37;101533.36;;;15.45;51.88
19789;BME280;10054;59.332;18.244;2023-05-10T05:42:06;101535.11;;;15.59;50.96
19789;BME280;10054;59.332;18.244;2023-05-10T05:44:35;101530.63;;;15.60;50.81
19789;BME280;10054;59.332;18.244;2023-05-10T05:47:05;101533.53;;;15.62;50.88
19789;BME280;10054;59.332;18.244;2023-05-10T05:49:34;101537.84;;;15.70;50.66
19789;BME280;10054;59.332;18.244;2023-05-10T05:52:04;101535.77;;;15.81;50.98
19789;BME280;10054;59.332;18.244;2023-05-10T05:54:33;101532.73;;;15.93;49.42
19789;BME280;10054;59.332;18.244;2023-05-10T05:57:02;101531.23;;;15.89;49.71
19789;BME280;10054;59.332;18.244;2023-05-10T05:59:31;101541.83;;;15.96;48.21
19789;BME280;10054;59.332;18.244;2023-05-10T06:02:00;101532.36;;;15.92;48.45
19789;BME280;10054;59.332;18.244;2023-05-10T06:04:29;101537.66;;;16.04;49.19
19789;BME280;10054;59.332;18.244;2023-05-10T06:06:57;101533.61;;;16.12;48.34
19789;BME280;10054;59.332;18.244;2023-05-10T06:09:26;101532.06;;;16.15;47.87
19789;BME280;10054;59.332;18.244;2023-05-10T06:11:55;101529.81;;;16.21;48.76
19789;BME280;10054;59.332;18.244;2023-05-10T06:14:23;101534.73;;;16.33;48.05
19789;BME280;10054;59.332;18.244;2023-05-10T06:16:52;101530.27;;;16.39;47.98
19789;BME280;10054;59.332;18.244;2023-05-10T06:19:21;101533.04;;;16.56;48.54
19789;BME280;10054;59.332;18.244;2023-05-10T06:21:50;101530.73;;;16.69;47.82
19789;BME280;10054;59.332;18.244;2023-05-10T06:24:18;101531.64;;;16.81;47.81
19789;BME280;10054;59.332;18.244;2023-05-10T06:26:47;101536.55;;;16.93;47.83
19789;BME280;10054;59.332;18.244;2023-05-10T06:29:17;101527.14;;;17.05;47.35
19789;BME280;10054;59.332;18.244;2023-05-10T06:31:46;101528.73;;;17.19;47.32
19789;BME280;10054;59.332;18.244;2023-05-10T06:34:15;101523.31;;;17.26;46.66
19789;BME280;10054;59.332;18.244;2023-05-10T06:36:45;101520.17;;;17.32;45.51
19789;BME280;10054;59.332;18.244;2023-05-10T06:39:14;101519.19;;;17.28;45.52
19789;BME280;10054;59.332;18.244;2023-05-10T06:41:43;101516.41;;;17.29;45.60
19789;BME280;10054;59.332;18.244;2023-05-10T06:44:12;101522.61;;;17.35;46.27
19789;BME280;10054;59.332;18.244;2023-05-10T06:46:40;101515.70;;;17.38;45.96
19789;BME280;10054;59.332;18.244;2023-05-10T06:49:09;101518.15;;;17.47;45.90
19789;BME280;10054;59.332;18.244;2023-05-10T06:51:38;101516.47;;;17.57;45.79
19789;BME280;10054;59.332;18.244;2023-05-10T06:54:07;101517.92;;;17.56;45.38
19789;BME280;10054;59.332;18.244;2023-05-10T06:56:36;101516.72;;;17.60;45.11
19789;BME280;10054;59.332;18.244;2023-05-10T06:59:05;101515.02;;;17.59;45.03
19789;BME280;10054;59.332;18.244;2023-05-10T07:01:34;101518.30;;;17.62;44.58
19789;BME280;10054;59.332;18.244;2023-05-10T07:04:03;101507.86;;;17.59;44.84
19789;BME280;10054;59.332;18.244;2023-05-10T07:06:32;101522.45;;;17.66;45.08
19789;BME280;10054;59.332;18.244;2023-05-10T07:09:01;101520.16;;;17.67;44.88
19789;BME280;10054;59.332;18.244;2023-05-10T07:11:32;101516.36;;;17.64;44.91
19789;BME280;10054;59.332;18.244;2023-05-10T07:14:00;101518.58;;;17.70;44.70
19789;BME280;10054;59.332;18.244;2023-05-10T07:16:29;101520.53;;;17.80;44.24
19789;BME280;10054;59.332;18.244;2023-05-10T07:18:57;101521.47;;;17.90;44.58
19789;BME280;10054;59.332;18.244;2023-05-10T07:21:26;101520.63;;;17.95;43.50
19789;BME280;10054;59.332;18.244;2023-05-10T07:23:56;101517.47;;;17.95;43.36
19789;BME280;10054;59.332;18.244;2023-05-10T07:26:24;101521.23;;;18.04;43.52
19789;BME280;10054;59.332;18.244;2023-05-10T07:28:53;101515.89;;;18.10;43.13
19789;BME280;10054;59.332;18.244;2023-05-10T07:31:23;101524.14;;;18.12;42.06
19789;BME280;10054;59.332;18.244;2023-05-10T07:33:52;101524.27;;;18.16;43.08
19789;BME280;10054;59.332;18.244;2023-05-10T07:36:20;101516.60;;;18.28;42.73
19789;BME280;10054;59.332;18.244;2023-05-10T07:38:49;101525.95;;;18.28;42.48
19789;BME280;10054;59.332;18.244;2023-05-10T07:41:18;101521.70;;;18.31;42.02
19789;BME280;10054;59.332;18.244;2023-05-10T07:43:48;101520.59;;;18.39;42.85
19789;BME280;10054;59.332;18.244;2023-05-10T07:46:17;101524.09;;;18.51;42.87
19789;BME280;10054;59.332;18.244;2023-05-10T07:48:47;101525.54;;;18.55;41.75
19789;BME280;10054;59.332;18.244;2023-05-10T07:51:16;101525.79;;;18.52;42.17
19789;BME280;10054;59.332;18.244;2023-05-10T07:53:44;101528.42;;;18.58;42.43
19789;BME280;10054;59.332;18.244;2023-05-10T07:56:27;101523.44;;;18.70;42.77
19789;BME280;10054;59.332;18.244;2023-05-10T07:59:02;101527.30;;;18.77;42.14
19789;BME280;10054;59.332;18.244;2023-05-10T08:01:34;101522.55;;;18.81;41.76
19789;BME280;10054;59.332;18.244;2023-05-10T08:04:03;101529.14;;;18.71;41.70
19789;BME280;10054;59.332;18.244;2023-05-10T08:06:32;101529.36;;;18.79;41.84
19789;BME280;10054;59.332;18.244;2023-05-10T08:09:01;101523.10;;;18.95;41.53
19789;BME280;10054;59.332;18.244;2023-05-10T08:11:30;101521.36;;;19.06;40.61
19789;BME280;10054;59.332;18.244;2023-05-10T08:13:58;101525.24;;;19.07;40.61
19789;BME280;10054;59.332;18.244;2023-05-10T08:16:27;101521.61;;;19.02;40.50
19789;BME280;10054;59.332;18.244;2023-05-10T08:18:56;101523.67;;;19.04;40.44
19789;BME280;10054;59.332;18.244;2023-05-10T08:21:25;101531.55;;;19.12;40.63
19789;BME280;10054;59.332;18.244;2023-05-10T08:23:54;101525.37;;;19.06;40.96
19789;BME280;10054;59.332;18.244;2023-05-10T08:26:22;101524.63;;;19.09;40.75
19789;BME280;10054;59.332;18.244;2023-05-10T08:28:51;101521.33;;;19.11;41.40
19789;BME280;10054;59.332;18.244;2023-05-10T08:31:20;101527.99;;;19.17;40.73
19789;BME280;10054;59.332;18.244;2023-05-10T08:33:48;101520.56;;;19.20;41.16
19789;BME280;10054;59.332;18.244;2023-05-10T08:36:19;101525.82;;;19.31;41.41
19789;BME280;10054;59.332;18.244;2023-05-10T08:38:50;101528.78;;;19.28;39.64
19789;BME280;10054;59.332;18.244;2023-05-10T08:41:23;101526.63;;;19.37;40.67
19789;BME280;10054;59.332;18.244;2023-05-10T08:43:54;101523.60;;;19.36;40.53
19789;BME280;10054;59.332;18.244;2023-05-10T08:46:23;101528.92;;;19.42;40.02
19789;BME280;10054;59.332;18.244;2023-05-10T08:48:53;101527.58;;;19.42;40.29
19789;BME280;10054;59.332;18.244;2023-05-10T08:51:24;101533.27;;;19.49;40.25
19789;BME280;10054;59.332;18.244;2023-05-10T08:53:55;101526.49;;;19.65;38.13
19789;BME280;10054;59.332;18.244;2023-05-10T08:56:25;101528.30;;;19.86;38.54
19789;BME280;10054;59.332;18.244;2023-05-10T08:58:54;101530.30;;;19.93;37.35
19789;BME280;10054;59.332;18.244;2023-05-10T09:01:23;101530.48;;;20.01;36.18
19789;BME280;10054;59.332;18.244;2023-05-10T09:03:53;101534.86;;;20.12;33.95
19789;BME280;10054;59.332;18.244;2023-05-10T09:06:21;101526.99;;;20.20;34.44
19789;BME280;10054;59.332;18.244;2023-05-10T09:08:51;101530.88;;;20.22;34.22
19789;BME280;10054;59.332;18.244;2023-05-10T09:11:20;101529.63;;;20.26;34.38
19789;BME280;10054;59.332;18.244;2023-05-10T09:13:50;101517.21;;;20.40;34.54
19789;BME280;10054;59.332;18.244;2023-05-10T09:16:19;101525.98;;;20.52;34.16
19789;BME280;10054;59.332;18.244;2023-05-10T09:18:48;101530.80;;;20.58;33.93
19789;BME280;10054;59.332;18.244;2023-05-10T09:21:17;101523.34;;;20.71;34.43
19789;BME280;10054;59.332;18.244;2023-05-10T09:23:48;101527.83;;;20.80;34.66
19789;BME280;10054;59.332;18.244;2023-05-10T09:26:17;101532.78;;;20.94;35.05
19789;BME280;10054;59.332;18.244;2023-05-10T09:28:58;101534.63;;;21.04;34.36
19789;BME280;10054;59.332;18.244;2023-05-10T09:31:45;101529.61;;;21.05;35.33
19789;BME280;10054;59.332;18.244;2023-05-10T09:34:31;101534.63;;;21.13;35.72
19789;BME280;10054;59.332;18.244;2023-05-10T09:37:03;101533.28;;;21.04;35.11
19789;BME280;10054;59.332;18.244;2023-05-10T09:39:34;101524.24;;;21.05;34.33
19789;BME280;10054;59.332;18.244;2023-05-10T09:42:08;101532.29;;;21.14;33.86
19789;BME280;10054;59.332;18.244;2023-05-10T09:44:37;101535.89;;;21.19;34.60
19789;BME280;10054;59.332;18.244;2023-05-10T09:47:08;101533.84;;;21.17;35.59
19789;BME280;10054;59.332;18.244;2023-05-10T09:49:36;101535.75;;;21.11;34.75
19789;BME280;10054;59.332;18.244;2023-05-10T09:52:07;101525.23;;;21.13;34.43
19789;BME280;10054;59.332;18.244;2023-05-10T09:54:36;101528.13;;;21.16;33.10
19789;BME280;10054;59.332;18.244;2023-05-10T09:57:05;101531.97;;;21.23;33.38
19789;BME280;10054;59.332;18.244;2023-05-10T09:59:33;101530.38;;;21.20;34.23
19789;BME280;10054;59.332;18.244;2023-05-10T10:02:03;101544.16;;;21.02;35.21
19789;BME280;10054;59.332;18.244;2023-05-10T10:04:32;101548.80;;;20.90;35.65
19789;BME280;10054;59.332;18.244;2023-05-10T10:07:04;101538.21;;;20.89;33.20
19789;BME280;10054;59.332;18.244;2023-05-10T10:09:34;101538.15;;;20.94;33.84
19789;BME280;10054;59.332;18.244;2023-05-10T10:12:03;101535.97;;;21.04;33.37
19789;BME280;10054;59.332;18.244;2023-05-10T10:14:33;101532.99;;;21.16;33.20
19789;BME280;10054;59.332;18.244;2023-05-10T10:17:04;101545.92;;;21.17;32.01
19789;BME280;10054;59.332;18.244;2023-05-10T10:19:36;101529.53;;;21.10;32.12
19789;BME280;10054;59.332;18.244;2023-05-10T10:22:05;101527.70;;;21.11;32.65
19789;BME280;10054;59.332;18.244;2023-05-10T10:24:34;101526.22;;;21.12;32.71
19789;BME280;10054;59.332;18.244;2023-05-10T10:27:34;101528.62;;;21.15;32.94
19789;BME280;10054;59.332;18.244;2023-05-10T10:32:59;101530.52;;;21.19;32.45
19789;BME280;10054;59.332;18.244;2023-05-10T10:35:25;101531.51;;;21.18;32.23
19789;BME280;10054;59.332;18.244;2023-05-10T10:37:54;101530.02;;;21.19;31.94
19789;BME280;10054;59.332;18.244;2023-05-10T10:40:25;101529.18;;;21.19;32.32
19789;BME280;10054;59.332;18.244;2023-05-10T10:42:55;101536.73;;;21.10;31.78
19789;BME280;10054;59.332;18.244;2023-05-10T10:45:25;101530.17;;;21.08;31.58
19789;BME280;10054;59.332;18.244;2023-05-10T10:48:21;101519.23;;;21.06;31.94
19789;BME280;10054;59.332;18.244;2023-05-10T10:50:55;101528.90;;;21.03;32.25
19789;BME280;10054;59.332;18.244;2023-05-10T10:53:22;101529.53;;;21.00;32.09
19789;BME280;10054;59.332;18.244;2023-05-10T10:55:53;101526.00;;;21.00;31.96
19789;BME280;10054;59.332;18.244;2023-05-10T10:58:31;101527.13;;;20.97;31.30
19789;BME280;10054;59.332;18.244;2023-05-10T11:01:12;101517.53;;;21.05;31.76
19789;BME280;10054;59.332;18.244;2023-05-10T11:03:41;101518.31;;;21.11;31.35
19789;BME280;10054;59.332;18.244;2023-05-10T11:06:11;101526.43;;;21.15;31.86
19789;BME280;10054;59.332;18.244;2023-05-10T11:08:43;101516.26;;;21.18;31.85
19789;BME280;10054;59.332;18.244;2023-05-10T11:11:14;101516.11;;;21.20;31.73
19789;BME280;10054;59.332;18.244;2023-05-10T11:13:45;101519.02;;;21.13;31.56
19789;BME280;10054;59.332;18.244;2023-05-10T11:16:20;101514.50;;;21.04;30.87
19789;BME280;10054;59.332;18.244;2023-05-10T11:18:59;101515.70;;;20.95;30.94
19789;BME280;10054;59.332;18.244;2023-05-10T11:21:30;101520.36;;;20.93;30.84
19789;BME280;10054;59.332;18.244;2023-05-10T11:24:01;101512.31;;;20.93;31.45
19789;BME280;10054;59.332;18.244;2023-05-10T11:26:36;101526.56;;;20.84;30.67
19789;BME280;10054;59.332;18.244;2023-05-10T11:29:05;101521.64;;;20.70;29.61
19789;BME280;10054;59.332;18.244;2023-05-10T11:31:34;101519.58;;;20.58;29.48
19789;BME280;10054;59.332;18.244;2023-05-10T11:34:03;101510.97;;;20.55;30.87
19789;BME280;10054;59.332;18.244;2023-05-10T11:36:33;101520.78;;;20.60;31.12
19789;BME280;10054;59.332;18.244;2023-05-10T11:39:04;101516.09;;;20.43;30.08
19789;BME280;10054;59.332;18.244;2023-05-10T11:41:33;101520.91;;;20.49;31.36
19789;BME280;10054;59.332;18.244;2023-05-10T11:44:03;101520.56;;;20.57;31.83
19789;BME280;10054;59.332;18.244;2023-05-10T11:46:32;101524.38;;;20.64;31.83
19789;BME280;10054;59.332;18.244;2023-05-10T11:49:01;101522.14;;;20.70;31.69
19789;BME280;10054;59.332;18.244;2023-05-10T11:51:34;101526.23;;;20.74;31.69
19789;BME280;10054;59.332;18.244;2023-05-10T11:54:09;101520.59;;;20.77;31.42
19789;BME280;10054;59.332;18.244;2023-05-10T11:56:39;101527.83;;;20.80;31.57
19789;BME280;10054;59.332;18.244;2023-05-10T11:59:08;101517.27;;;20.69;30.47
19789;BME280;10054;59.332;18.244;2023-05-10T12:01:37;101520.72;;;20.65;30.69
19789;BME280;10054;59.332;18.244;2023-05-10T12:04:06;101512.18;;;20.66;30.99
19789;BME280;10054;59.332;18.244;2023-05-10T12:06:37;101515.85;;;20.65;31.33
19789;BME280;10054;59.332;18.244;2023-05-10T12:09:08;101514.71;;;20.58;31.28
19789;BME280;10054;59.332;18.244;2023-05-10T12:11:40;101510.41;;;20.61;31.84
19789;BME280;10054;59.332;18.244;2023-05-10T12:14:09;101511.55;;;20.68;31.63
19789;BME280;10054;59.332;18.244;2023-05-10T12:16:38;101509.78;;;20.63;31.19
19789;BME280;10054;59.332;18.244;2023-05-10T12:19:10;101512.11;;;20.62;31.24
19789;BME280;10054;59.332;18.244;2023-05-10T12:21:39;101507.81;;;20.65;31.52
19789;BME280;10054;59.332;18.244;2023-05-10T12:24:08;101501.09;;;20.55;31.41
19789;BME280;10054;59.332;18.244;2023-05-10T12:26:37;101504.89;;;20.53;31.52
19789;BME280;10054;59.332;18.244;2023-05-10T12:31:58;101508.48;;;20.48;31.46
19789;BME280;10054;59.332;18.244;2023-05-10T12:34:31;101517.70;;;20.40;30.97
19789;BME280;10054;59.332;18.244;2023-05-10T12:37:02;101513.41;;;20.27;30.67
19789;BME280;10054;59.332;18.244;2023-05-10T12:39:44;101508.95;;;20.22;31.31
19789;BME280;10054;59.332;18.244;2023-05-10T12:42:13;101506.08;;;20.29;31.77
19789;BME280;10054;59.332;18.244;2023-05-10T12:44:42;101511.84;;;20.25;31.93
19789;BME280;10054;59.332;18.244;2023-05-10T12:47:11;101512.20;;;20.26;32.21
19789;BME280;10054;59.332;18.244;2023-05-10T12:49:40;101515.45;;;20.29;32.16
19789;BME280;10054;59.332;18.244;2023-05-10T12:52:09;101505.25;;;20.14;31.22
19789;BME280;10054;59.332;18.244;2023-05-10T12:54:37;101500.20;;;20.20;32.49
19789;BME280;10054;59.332;18.244;2023-05-10T12:57:06;101499.44;;;20.24;32.46
19789;BME280;10054;59.332;18.244;2023-05-10T12:59:35;101513.05;;;20.26;32.76
19789;BME280;10054;59.332;18.244;2023-05-10T13:02:04;101515.67;;;20.32;32.64
19789;BME280;10054;59.332;18.244;2023-05-10T13:04:32;101510.29;;;20.22;32.08
19789;BME280;10054;59.332;18.244;2023-05-10T13:07:02;101510.78;;;20.22;32.37
19789;BME280;10054;59.332;18.244;2023-05-10T13:09:31;101510.03;;;20.00;31.56
19789;BME280;10054;59.332;18.244;2023-05-10T13:12:00;101510.88;;;20.01;32.57
19789;BME280;10054;59.332;18.244;2023-05-10T13:14:29;101507.09;;;20.04;32.32
19789;BME280;10054;59.332;18.244;2023-05-10T13:16:58;101498.75;;;20.07;32.67
19789;BME280;10054;59.332;18.244;2023-05-10T13:19:27;101493.11;;;20.00;31.77
19789;BME280;10054;59.332;18.244;2023-05-10T13:21:55;101501.91;;;20.06;32.58